sensor_id;sensor_type;location;lat;lon;timestamp;P1;durP1;ratioP1;P2;durP2;ratioP2
5823;SDS011;2938;52.254;12.988;2023-07-16T00:00:01;8.23;;;6.93;;
5823;SDS011;2938;52.254;12.988;2023-07-16T00:02:29;9.00;;;6.28;;
5823;SDS011;2938;52.254;12.988;2023-07-16T00:04:54;14.30;;;6.25;;
5823;SDS011;2938;52.254;12.988;2023-07-16T00:07:20;9.55;;;7.18;;
5823;SDS011;2938;52.254;12.988;2023-07-16T00:09:45;7.68;;;6.97;;
5823;SDS011;2938;52.254;12.988;2023-07-16T00:12:13;13.43;;;6.50;;
5823;SDS011;2938;52.254;12.988;2023-07-16T00:14:39;7.00;;;6.30;;
5823;SDS011;2938;52.254;12.988;2023-07-16T00:17:04;9.15;;;6.88;;
5823;SDS011;2938;52.254;12.988;2023-07-16T00:19:29;7.00;;;6.40;;
5823;SDS011;2938;52.254;12.988;2023-07-16T00:21:55;10.63;;;7.70;;
5823;SDS011;2938;52.254;12.988;2023-07-16T00:24:20;8.50;;;7.63;;
5823;SDS011;2938;52.254;12.988;2023-07-16T00:26:45;11.17;;;7.67;;
5823;SDS011;2938;52.254;12.988;2023-07-16T00:29:13;7.05;;;6.35;;
5823;SDS011;2938;52.254;12.988;2023-07-16T00:31:38;8.52;;;7.57;;
5823;SDS011;2938;52.254;12.988;2023-07-16T00:34:06;7.93;;;7.03;;
5823;SDS011;2938;52.254;12.988;2023-07-16T00:36:31;8.75;;;7.28;;
5823;SDS011;2938;52.254;12.988;2023-07-16T00:38:57;7.88;;;6.95;;
5823;SDS011;2938;52.254;12.988;2023-07-16T00:41:22;12.87;;;7.97;;
5823;SDS011;2938;52.254;12.988;2023-07-16T00:43:47;11.55;;;7.40;;
5823;SDS011;2938;52.254;12.988;2023-07-16T00:46:13;8.18;;;7.22;;
5823;SDS011;2938;52.254;12.988;2023-07-16T00:48:39;7.40;;;5.72;;
5823;SDS011;2938;52.254;12.988;2023-07-16T00:51:08;9.02;;;6.57;;
5823;SDS011;2938;52.254;12.988;2023-07-16T00:53:34;9.20;;;6.38;;
5823;SDS011;2938;52.254;12.988;2023-07-16T00:55:59;6.85;;;6.05;;
5823;SDS011;2938;52.254;12.988;2023-07-16T00:58:24;8.00;;;7.10;;
5823;SDS011;2938;52.254;12.988;2023-07-16T01:00:50;8.27;;;6.05;;
5823;SDS011;2938;52.254;12.988;2023-07-16T01:03:15;10.77;;;6.28;;
5823;SDS011;2938;52.254;12.988;2023-07-16T01:05:45;8.95;;;6.50;;
5823;SDS011;2938;52.254;12.988;2023-07-16T01:08:16;11.00;;;6.75;;
5823;SDS011;2938;52.254;12.988;2023-07-16T01:10:46;6.90;;;5.78;;
5823;SDS011;2938;52.254;12.988;2023-07-16T01:13:11;8.30;;;6.57;;
5823;SDS011;2938;52.254;12.988;2023-07-16T01:15:37;7.75;;;5.95;;
5823;SDS011;2938;52.254;12.988;2023-07-16T01:18:05;6.43;;;5.78;;
5823;SDS011;2938;52.254;12.988;2023-07-16T01:20:30;11.77;;;5.60;;
5823;SDS011;2938;52.254;12.988;2023-07-16T01:29:31;9.63;;;4.53;;
5823;SDS011;2938;52.254;12.988;2023-07-16T01:31:33;4.18;;;3.53;;
5823;SDS011;2938;52.254;12.988;2023-07-16T01:33:59;6.05;;;3.58;;
5823;SDS011;2938;52.254;12.988;2023-07-16T01:36:28;7.10;;;3.75;;
5823;SDS011;2938;52.254;12.988;2023-07-16T01:38:54;5.38;;;3.25;;
5823;SDS011;2938;52.254;12.988;2023-07-16T01:41:19;4.78;;;2.58;;
5823;SDS011;2938;52.254;12.988;2023-07-16T01:43:48;7.30;;;2.23;;
5823;SDS011;2938;52.254;12.988;2023-07-16T01:46:13;7.07;;;2.30;;
5823;SDS011;2938;52.254;12.988;2023-07-16T01:48:38;5.85;;;2.92;;
5823;SDS011;2938;52.254;12.988;2023-07-16T01:51:10;7.60;;;3.30;;
5823;SDS011;2938;52.254;12.988;2023-07-16T01:53:41;4.57;;;2.72;;
5823;SDS011;2938;52.254;12.988;2023-07-16T01:56:07;6.20;;;3.13;;
5823;SDS011;2938;52.254;12.988;2023-07-16T01:58:38;11.00;;;5.25;;
5823;SDS011;2938;52.254;12.988;2023-07-16T02:01:11;12.32;;;4.28;;
5823;SDS011;2938;52.254;12.988;2023-07-16T02:03:36;7.00;;;3.90;;
5823;SDS011;2938;52.254;12.988;2023-07-16T02:06:04;4.35;;;3.53;;
5823;SDS011;2938;52.254;12.988;2023-07-16T02:08:29;9.90;;;4.40;;
5823;SDS011;2938;52.254;12.988;2023-07-16T02:10:55;4.40;;;3.97;;
5823;SDS011;2938;52.254;12.988;2023-07-16T02:13:20;6.97;;;3.42;;
5823;SDS011;2938;52.254;12.988;2023-07-16T02:15:45;5.17;;;3.53;;
5823;SDS011;2938;52.254;12.988;2023-07-16T02:18:11;7.00;;;3.70;;
5823;SDS011;2938;52.254;12.988;2023-07-16T02:20:36;4.30;;;3.58;;
5823;SDS011;2938;52.254;12.988;2023-07-16T02:23:01;5.15;;;3.95;;
5823;SDS011;2938;52.254;12.988;2023-07-16T02:25:26;6.60;;;3.75;;
5823;SDS011;2938;52.254;12.988;2023-07-16T02:27:55;7.72;;;4.15;;
5823;SDS011;2938;52.254;12.988;2023-07-16T02:30:20;8.88;;;4.47;;
5823;SDS011;2938;52.254;12.988;2023-07-16T02:32:46;5.23;;;4.13;;
5823;SDS011;2938;52.254;12.988;2023-07-16T02:35:11;5.38;;;4.22;;
5823;SDS011;2938;52.254;12.988;2023-07-16T02:37:36;6.30;;;4.40;;
5823;SDS011;2938;52.254;12.988;2023-07-16T02:40:02;9.90;;;5.22;;
5823;SDS011;2938;52.254;12.988;2023-07-16T02:42:28;8.25;;;4.40;;
5823;SDS011;2938;52.254;12.988;2023-07-16T02:44:54;4.25;;;3.95;;
5823;SDS011;2938;52.254;12.988;2023-07-16T02:47:19;9.95;;;5.07;;
5823;SDS011;2938;52.254;12.988;2023-07-16T02:49:44;4.23;;;3.87;;
5823;SDS011;2938;52.254;12.988;2023-07-16T02:52:09;8.35;;;4.65;;
5823;SDS011;2938;52.254;12.988;2023-07-16T02:54:35;5.20;;;4.68;;
5823;SDS011;2938;52.254;12.988;2023-07-16T02:57:00;5.45;;;4.85;;
5823;SDS011;2938;52.254;12.988;2023-07-16T02:59:26;6.30;;;3.73;;
5823;SDS011;2938;52.254;12.988;2023-07-16T03:01:51;11.20;;;4.85;;
5823;SDS011;2938;52.254;12.988;2023-07-16T03:04:17;5.40;;;4.32;;
5823;SDS011;2938;52.254;12.988;2023-07-16T03:06:42;4.90;;;4.50;;
5823;SDS011;2938;52.254;12.988;2023-07-16T03:09:07;8.85;;;4.80;;
5823;SDS011;2938;52.254;12.988;2023-07-16T03:11:33;6.43;;;4.33;;
5823;SDS011;2938;52.254;12.988;2023-07-16T03:13:58;4.85;;;4.32;;
5823;SDS011;2938;52.254;12.988;2023-07-16T03:16:23;6.30;;;5.45;;
5823;SDS011;2938;52.254;12.988;2023-07-16T03:18:48;6.13;;;5.13;;
5823;SDS011;2938;52.254;12.988;2023-07-16T03:21:14;12.05;;;6.07;;
5823;SDS011;2938;52.254;12.988;2023-07-16T03:23:39;7.50;;;4.93;;
5823;SDS011;2938;52.254;12.988;2023-07-16T03:26:04;7.55;;;5.43;;
5823;SDS011;2938;52.254;12.988;2023-07-16T03:28:30;9.65;;;6.28;;
5823;SDS011;2938;52.254;12.988;2023-07-16T03:30:55;7.43;;;6.15;;
5823;SDS011;2938;52.254;12.988;2023-07-16T03:33:20;9.30;;;6.32;;
5823;SDS011;2938;52.254;12.988;2023-07-16T03:35:46;6.75;;;6.07;;
5823;SDS011;2938;52.254;12.988;2023-07-16T03:38:12;9.15;;;7.22;;
5823;SDS011;2938;52.254;12.988;2023-07-16T03:40:38;7.72;;;7.10;;
5823;SDS011;2938;52.254;12.988;2023-07-16T03:43:06;7.75;;;6.95;;
5823;SDS011;2938;52.254;12.988;2023-07-16T03:45:31;7.03;;;5.93;;
5823;SDS011;2938;52.254;12.988;2023-07-16T03:47:57;6.70;;;6.03;;
5823;SDS011;2938;52.254;12.988;2023-07-16T03:50:22;6.93;;;6.28;;
5823;SDS011;2938;52.254;12.988;2023-07-16T03:52:47;7.70;;;6.65;;
5823;SDS011;2938;52.254;12.988;2023-07-16T03:55:12;7.50;;;6.70;;
5823;SDS011;2938;52.254;12.988;2023-07-16T03:57:38;12.75;;;7.47;;
5823;SDS011;2938;52.254;12.988;2023-07-16T04:00:03;7.57;;;6.30;;
5823;SDS011;2938;52.254;12.988;2023-07-16T04:02:32;11.75;;;7.10;;
5823;SDS011;2938;52.254;12.988;2023-07-16T04:04:58;8.23;;;6.85;;
5823;SDS011;2938;52.254;12.988;2023-07-16T04:07:23;7.47;;;6.78;;
5823;SDS011;2938;52.254;12.988;2023-07-16T04:09:48;9.45;;;7.65;;
5823;SDS011;2938;52.254;12.988;2023-07-16T04:12:14;9.10;;;7.97;;
5823;SDS011;2938;52.254;12.988;2023-07-16T04:14:39;9.43;;;8.43;;
5823;SDS011;2938;52.254;12.988;2023-07-16T04:17:05;9.20;;;8.30;;
5823;SDS011;2938;52.254;12.988;2023-07-16T04:19:30;10.45;;;9.30;;
5823;SDS011;2938;52.254;12.988;2023-07-16T04:21:55;13.65;;;8.23;;
5823;SDS011;2938;52.254;12.988;2023-07-16T04:24:21;9.07;;;7.90;;
5823;SDS011;2938;52.254;12.988;2023-07-16T04:26:46;11.07;;;9.13;;
5823;SDS011;2938;52.254;12.988;2023-07-16T04:29:15;8.52;;;7.63;;
5823;SDS011;2938;52.254;12.988;2023-07-16T04:31:42;8.57;;;7.60;;
5823;SDS011;2938;52.254;12.988;2023-07-16T04:34:08;8.30;;;7.50;;
5823;SDS011;2938;52.254;12.988;2023-07-16T04:36:33;12.18;;;7.78;;
5823;SDS011;2938;52.254;12.988;2023-07-16T04:39:01;7.55;;;6.78;;
5823;SDS011;2938;52.254;12.988;2023-07-16T04:41:29;8.25;;;7.55;;
5823;SDS011;2938;52.254;12.988;2023-07-16T04:43:54;11.80;;;7.18;;
5823;SDS011;2938;52.254;12.988;2023-07-16T04:46:19;10.35;;;7.75;;
5823;SDS011;2938;52.254;12.988;2023-07-16T04:48:44;7.35;;;6.40;;
5823;SDS011;2938;52.254;12.988;2023-07-16T04:51:10;11.57;;;7.73;;
5823;SDS011;2938;52.254;12.988;2023-07-16T04:53:35;7.45;;;6.82;;
5823;SDS011;2938;52.254;12.988;2023-07-16T04:56:00;9.95;;;6.43;;
5823;SDS011;2938;52.254;12.988;2023-07-16T04:58:26;9.30;;;5.78;;
5823;SDS011;2938;52.254;12.988;2023-07-16T05:00:51;6.93;;;6.20;;
5823;SDS011;2938;52.254;12.988;2023-07-16T05:03:26;5.93;;;5.43;;
5823;SDS011;2938;52.254;12.988;2023-07-16T05:05:52;6.05;;;5.55;;
5823;SDS011;2938;52.254;12.988;2023-07-16T05:08:20;6.43;;;5.57;;
5823;SDS011;2938;52.254;12.988;2023-07-16T05:10:45;7.13;;;6.10;;
5823;SDS011;2938;52.254;12.988;2023-07-16T05:13:13;5.55;;;5.05;;
5823;SDS011;2938;52.254;12.988;2023-07-16T05:16:13;5.22;;;4.40;;
5823;SDS011;2938;52.254;12.988;2023-07-16T05:18:44;4.20;;;3.75;;
5823;SDS011;2938;52.254;12.988;2023-07-16T05:21:10;4.72;;;3.53;;
5823;SDS011;2938;52.254;12.988;2023-07-16T05:23:40;4.03;;;3.67;;
5823;SDS011;2938;52.254;12.988;2023-07-16T05:28:59;8.68;;;3.83;;
5823;SDS011;2938;52.254;12.988;2023-07-16T05:34:28;8.88;;;4.32;;
5823;SDS011;2938;52.254;12.988;2023-07-16T05:40:08;3.97;;;3.67;;
5823;SDS011;2938;52.254;12.988;2023-07-16T05:42:36;5.95;;;3.88;;
5823;SDS011;2938;52.254;12.988;2023-07-16T05:45:20;8.35;;;4.35;;
5823;SDS011;2938;52.254;12.988;2023-07-16T05:47:45;7.80;;;4.40;;
5823;SDS011;2938;52.254;12.988;2023-07-16T05:50:10;6.65;;;3.53;;
5823;SDS011;2938;52.254;12.988;2023-07-16T05:52:36;6.40;;;3.67;;
5823;SDS011;2938;52.254;12.988;2023-07-16T05:55:01;3.50;;;3.17;;
5823;SDS011;2938;52.254;12.988;2023-07-16T05:57:26;7.13;;;3.78;;
5823;SDS011;2938;52.254;12.988;2023-07-16T05:59:52;11.03;;;4.13;;
5823;SDS011;2938;52.254;12.988;2023-07-16T06:02:17;7.47;;;3.15;;
5823;SDS011;2938;52.254;12.988;2023-07-16T06:04:42;5.97;;;3.37;;
5823;SDS011;2938;52.254;12.988;2023-07-16T06:07:08;6.30;;;3.27;;
5823;SDS011;2938;52.254;12.988;2023-07-16T06:09:33;3.33;;;3.03;;
5823;SDS011;2938;52.254;12.988;2023-07-16T06:12:02;4.40;;;3.08;;
5823;SDS011;2938;52.254;12.988;2023-07-16T06:14:36;5.80;;;3.15;;
5823;SDS011;2938;52.254;12.988;2023-07-16T06:17:01;2.83;;;2.60;;
5823;SDS011;2938;52.254;12.988;2023-07-16T06:22:24;5.45;;;2.78;;
5823;SDS011;2938;52.254;12.988;2023-07-16T06:24:52;6.43;;;3.00;;
5823;SDS011;2938;52.254;12.988;2023-07-16T06:27:24;8.02;;;3.35;;
5823;SDS011;2938;52.254;12.988;2023-07-16T06:29:50;2.80;;;2.60;;
5823;SDS011;2938;52.254;12.988;2023-07-16T06:32:21;4.72;;;3.40;;
5823;SDS011;2938;52.254;12.988;2023-07-16T06:34:49;3.95;;;2.63;;
5823;SDS011;2938;52.254;12.988;2023-07-16T06:37:14;3.27;;;2.93;;
5823;SDS011;2938;52.254;12.988;2023-07-16T06:39:40;4.67;;;2.97;;
5823;SDS011;2938;52.254;12.988;2023-07-16T06:42:08;6.80;;;3.00;;
5823;SDS011;2938;52.254;12.988;2023-07-16T06:44:33;2.95;;;2.60;;
5823;SDS011;2938;52.254;12.988;2023-07-16T06:47:12;6.68;;;3.10;;
5823;SDS011;2938;52.254;12.988;2023-07-16T06:49:40;3.72;;;3.28;;
5823;SDS011;2938;52.254;12.988;2023-07-16T06:52:18;6.15;;;3.10;;
5823;SDS011;2938;52.254;12.988;2023-07-16T06:54:47;4.90;;;3.13;;
5823;SDS011;2938;52.254;12.988;2023-07-16T06:57:15;7.30;;;3.05;;
5823;SDS011;2938;52.254;12.988;2023-07-16T06:59:50;5.88;;;2.70;;
5823;SDS011;2938;52.254;12.988;2023-07-16T07:02:16;3.17;;;2.78;;
5823;SDS011;2938;52.254;12.988;2023-07-16T07:04:42;4.78;;;3.20;;
5823;SDS011;2938;52.254;12.988;2023-07-16T07:07:08;4.13;;;2.40;;
5823;SDS011;2938;52.254;12.988;2023-07-16T07:09:33;3.63;;;3.15;;
5823;SDS011;2938;52.254;12.988;2023-07-16T07:11:58;5.72;;;2.72;;
5823;SDS011;2938;52.254;12.988;2023-07-16T07:14:24;3.90;;;3.15;;
5823;SDS011;2938;52.254;12.988;2023-07-16T07:16:52;6.20;;;2.55;;
5823;SDS011;2938;52.254;12.988;2023-07-16T07:19:18;5.28;;;3.25;;
5823;SDS011;2938;52.254;12.988;2023-07-16T07:21:43;5.57;;;2.65;;
5823;SDS011;2938;52.254;12.988;2023-07-16T07:24:12;12.00;;;3.38;;
5823;SDS011;2938;52.254;12.988;2023-07-16T07:26:37;5.80;;;2.88;;
5823;SDS011;2938;52.254;12.988;2023-07-16T07:29:02;3.97;;;2.80;;
5823;SDS011;2938;52.254;12.988;2023-07-16T07:31:28;4.93;;;3.40;;
5823;SDS011;2938;52.254;12.988;2023-07-16T07:33:53;5.97;;;3.33;;
5823;SDS011;2938;52.254;12.988;2023-07-16T07:36:18;3.00;;;2.80;;
5823;SDS011;2938;52.254;12.988;2023-07-16T07:38:44;4.30;;;3.45;;
5823;SDS011;2938;52.254;12.988;2023-07-16T07:41:09;3.33;;;3.03;;
5823;SDS011;2938;52.254;12.988;2023-07-16T07:43:34;6.45;;;2.70;;
5823;SDS011;2938;52.254;12.988;2023-07-16T07:46:00;3.58;;;2.70;;
5823;SDS011;2938;52.254;12.988;2023-07-16T07:48:25;3.38;;;2.42;;
5823;SDS011;2938;52.254;12.988;2023-07-16T07:50:50;5.30;;;3.22;;
5823;SDS011;2938;52.254;12.988;2023-07-16T07:53:19;6.68;;;3.38;;
5823;SDS011;2938;52.254;12.988;2023-07-16T07:55:50;3.17;;;2.55;;
5823;SDS011;2938;52.254;12.988;2023-07-16T07:58:28;3.72;;;3.03;;
5823;SDS011;2938;52.254;12.988;2023-07-16T08:00:53;6.15;;;3.22;;
5823;SDS011;2938;52.254;12.988;2023-07-16T08:03:24;7.95;;;3.50;;
5823;SDS011;2938;52.254;12.988;2023-07-16T08:05:53;3.38;;;2.58;;
5823;SDS011;2938;52.254;12.988;2023-07-16T08:08:18;4.72;;;2.53;;
5823;SDS011;2938;52.254;12.988;2023-07-16T08:10:43;4.90;;;2.80;;
5823;SDS011;2938;52.254;12.988;2023-07-16T08:13:11;3.97;;;2.28;;
5823;SDS011;2938;52.254;12.988;2023-07-16T08:15:36;2.10;;;1.90;;
5823;SDS011;2938;52.254;12.988;2023-07-16T08:18:01;4.77;;;2.33;;
5823;SDS011;2938;52.254;12.988;2023-07-16T08:20:27;3.03;;;2.05;;
5823;SDS011;2938;52.254;12.988;2023-07-16T08:22:52;7.20;;;2.25;;
5823;SDS011;2938;52.254;12.988;2023-07-16T08:25:17;2.43;;;2.23;;
5823;SDS011;2938;52.254;12.988;2023-07-16T08:27:43;5.05;;;2.20;;
5823;SDS011;2938;52.254;12.988;2023-07-16T08:30:27;3.80;;;2.65;;
5823;SDS011;2938;52.254;12.988;2023-07-16T08:32:54;4.47;;;3.17;;
5823;SDS011;2938;52.254;12.988;2023-07-16T08:35:20;2.60;;;2.17;;
5823;SDS011;2938;52.254;12.988;2023-07-16T08:37:45;5.20;;;2.73;;
5823;SDS011;2938;52.254;12.988;2023-07-16T08:40:11;3.58;;;2.70;;
5823;SDS011;2938;52.254;12.988;2023-07-16T08:42:38;3.13;;;2.35;;
5823;SDS011;2938;52.254;12.988;2023-07-16T08:45:12;3.28;;;2.30;;
5823;SDS011;2938;52.254;12.988;2023-07-16T08:47:45;4.35;;;2.90;;
5823;SDS011;2938;52.254;12.988;2023-07-16T08:50:10;4.57;;;2.92;;
5823;SDS011;2938;52.254;12.988;2023-07-16T08:52:36;5.90;;;2.83;;
5823;SDS011;2938;52.254;12.988;2023-07-16T08:55:02;6.25;;;3.22;;
5823;SDS011;2938;52.254;12.988;2023-07-16T08:57:31;3.65;;;2.90;;
5823;SDS011;2938;52.254;12.988;2023-07-16T08:59:56;3.90;;;2.85;;
5823;SDS011;2938;52.254;12.988;2023-07-16T09:02:27;3.40;;;2.47;;
5823;SDS011;2938;52.254;12.988;2023-07-16T09:04:53;3.15;;;2.67;;
5823;SDS011;2938;52.254;12.988;2023-07-16T09:07:21;4.68;;;2.88;;
5823;SDS011;2938;52.254;12.988;2023-07-16T09:09:58;8.63;;;2.63;;
5823;SDS011;2938;52.254;12.988;2023-07-16T09:12:27;6.65;;;3.35;;
5823;SDS011;2938;52.254;12.988;2023-07-16T09:14:53;5.65;;;2.65;;
5823;SDS011;2938;52.254;12.988;2023-07-16T09:17:22;5.93;;;3.47;;
5823;SDS011;2938;52.254;12.988;2023-07-16T09:20:01;3.95;;;3.30;;
5823;SDS011;2938;52.254;12.988;2023-07-16T09:22:36;4.05;;;3.35;;
5823;SDS011;2938;52.254;12.988;2023-07-16T09:25:43;4.30;;;3.00;;
5823;SDS011;2938;52.254;12.988;2023-07-16T09:28:18;3.30;;;2.63;;
5823;SDS011;2938;52.254;12.988;2023-07-16T09:30:50;5.35;;;3.55;;
5823;SDS011;2938;52.254;12.988;2023-07-16T09:36:43;4.13;;;2.63;;
5823;SDS011;2938;52.254;12.988;2023-07-16T09:39:34;3.63;;;2.92;;
5823;SDS011;2938;52.254;12.988;2023-07-16T09:42:02;5.97;;;3.90;;
5823;SDS011;2938;52.254;12.988;2023-07-16T09:44:54;6.50;;;2.88;;
5823;SDS011;2938;52.254;12.988;2023-07-16T09:50:18;8.68;;;2.80;;
5823;SDS011;2938;52.254;12.988;2023-07-16T09:53:01;4.82;;;3.22;;
5823;SDS011;2938;52.254;12.988;2023-07-16T09:55:35;6.05;;;2.75;;
5823;SDS011;2938;52.254;12.988;2023-07-16T09:58:06;4.85;;;2.58;;
5823;SDS011;2938;52.254;12.988;2023-07-16T10:00:41;2.38;;;2.15;;
5823;SDS011;2938;52.254;12.988;2023-07-16T10:03:47;5.25;;;2.67;;
5823;SDS011;2938;52.254;12.988;2023-07-16T10:06:52;3.33;;;2.58;;
5823;SDS011;2938;52.254;12.988;2023-07-16T10:12:32;2.90;;;2.55;;
5823;SDS011;2938;52.254;12.988;2023-07-16T10:15:03;5.63;;;2.58;;
5823;SDS011;2938;52.254;12.988;2023-07-16T10:17:35;3.50;;;2.58;;
5823;SDS011;2938;52.254;12.988;2023-07-16T10:22:57;5.20;;;3.53;;
5823;SDS011;2938;52.254;12.988;2023-07-16T10:26:11;6.43;;;2.90;;
5823;SDS011;2938;52.254;12.988;2023-07-16T10:28:41;2.60;;;2.05;;
5823;SDS011;2938;52.254;12.988;2023-07-16T10:31:33;5.53;;;2.80;;
5823;SDS011;2938;52.254;12.988;2023-07-16T10:34:54;3.08;;;2.78;;
5823;SDS011;2938;52.254;12.988;2023-07-16T10:37:41;3.60;;;2.47;;
5823;SDS011;2938;52.254;12.988;2023-07-16T10:40:15;6.38;;;2.90;;
5823;SDS011;2938;52.254;12.988;2023-07-16T10:42:52;7.00;;;2.42;;
5823;SDS011;2938;52.254;12.988;2023-07-16T10:52:37;3.80;;;2.42;;
5823;SDS011;2938;52.254;12.988;2023-07-16T10:55:03;3.33;;;2.28;;
5823;SDS011;2938;52.254;12.988;2023-07-16T10:57:43;8.20;;;2.78;;
5823;SDS011;2938;52.254;12.988;2023-07-16T11:00:19;5.68;;;2.95;;
5823;SDS011;2938;52.254;12.988;2023-07-16T11:02:46;6.38;;;3.45;;
5823;SDS011;2938;52.254;12.988;2023-07-16T11:05:17;3.55;;;2.55;;
5823;SDS011;2938;52.254;12.988;2023-07-16T11:08:06;7.43;;;2.40;;
5823;SDS011;2938;52.254;12.988;2023-07-16T11:11:10;5.50;;;2.78;;
5823;SDS011;2938;52.254;12.988;2023-07-16T11:13:44;3.70;;;1.83;;
5823;SDS011;2938;52.254;12.988;2023-07-16T11:19:21;4.75;;;2.80;;
5823;SDS011;2938;52.254;12.988;2023-07-16T11:21:53;4.57;;;2.38;;
5823;SDS011;2938;52.254;12.988;2023-07-16T11:24:52;8.20;;;3.05;;
5823;SDS011;2938;52.254;12.988;2023-07-16T11:27:34;5.47;;;2.15;;
5823;SDS011;2938;52.254;12.988;2023-07-16T11:30:44;7.80;;;2.53;;
5823;SDS011;2938;52.254;12.988;2023-07-16T11:33:21;6.30;;;3.00;;
5823;SDS011;2938;52.254;12.988;2023-07-16T11:35:52;6.87;;;2.93;;
5823;SDS011;2938;52.254;12.988;2023-07-16T11:38:36;8.85;;;3.08;;
5823;SDS011;2938;52.254;12.988;2023-07-16T11:41:23;4.47;;;2.53;;
5823;SDS011;2938;52.254;12.988;2023-07-16T11:44:10;21.77;;;3.38;;
5823;SDS011;2938;52.254;12.988;2023-07-16T11:46:41;2.10;;;1.90;;
5823;SDS011;2938;52.254;12.988;2023-07-16T11:49:14;3.50;;;2.13;;
5823;SDS011;2938;52.254;12.988;2023-07-16T11:51:46;4.70;;;1.98;;
5823;SDS011;2938;52.254;12.988;2023-07-16T11:54:11;3.47;;;2.50;;
5823;SDS011;2938;52.254;12.988;2023-07-16T11:59:20;8.15;;;2.80;;
5823;SDS011;2938;52.254;12.988;2023-07-16T12:01:48;5.32;;;2.78;;
5823;SDS011;2938;52.254;12.988;2023-07-16T12:04:19;3.22;;;2.35;;
5823;SDS011;2938;52.254;12.988;2023-07-16T12:06:48;8.23;;;2.80;;
5823;SDS011;2938;52.254;12.988;2023-07-16T12:09:13;6.13;;;2.30;;
5823;SDS011;2938;52.254;12.988;2023-07-16T12:15:11;9.93;;;3.83;;
5823;SDS011;2938;52.254;12.988;2023-07-16T12:17:52;5.03;;;2.63;;
5823;SDS011;2938;52.254;12.988;2023-07-16T12:20:46;5.00;;;2.92;;
5823;SDS011;2938;52.254;12.988;2023-07-16T12:23:22;3.95;;;2.47;;
5823;SDS011;2938;52.254;12.988;2023-07-16T12:25:51;4.10;;;2.85;;
5823;SDS011;2938;52.254;12.988;2023-07-16T12:28:19;5.75;;;3.17;;
5823;SDS011;2938;52.254;12.988;2023-07-16T12:30:52;2.65;;;1.70;;
5823;SDS011;2938;52.254;12.988;2023-07-16T12:33:29;3.72;;;2.20;;
5823;SDS011;2938;52.254;12.988;2023-07-16T12:36:09;9.45;;;2.90;;
5823;SDS011;2938;52.254;12.988;2023-07-16T12:38:52;10.48;;;2.88;;
5823;SDS011;2938;52.254;12.988;2023-07-16T12:41:41;3.42;;;2.30;;
5823;SDS011;2938;52.254;12.988;2023-07-16T12:44:08;4.43;;;2.40;;
5823;SDS011;2938;52.254;12.988;2023-07-16T12:46:36;10.95;;;3.22;;
5823;SDS011;2938;52.254;12.988;2023-07-16T12:49:20;9.00;;;2.55;;
5823;SDS011;2938;52.254;12.988;2023-07-16T12:52:07;4.53;;;2.03;;
5823;SDS011;2938;52.254;12.988;2023-07-16T12:55:05;7.82;;;2.53;;
5823;SDS011;2938;52.254;12.988;2023-07-16T12:57:50;4.35;;;2.05;;
5823;SDS011;2938;52.254;12.988;2023-07-16T13:00:16;12.70;;;3.05;;
5823;SDS011;2938;52.254;12.988;2023-07-16T13:02:42;8.30;;;2.83;;
5823;SDS011;2938;52.254;12.988;2023-07-16T13:05:08;2.97;;;2.20;;
5823;SDS011;2938;52.254;12.988;2023-07-16T13:07:33;8.77;;;2.70;;
5823;SDS011;2938;52.254;12.988;2023-07-16T13:09:58;5.78;;;2.50;;
5823;SDS011;2938;52.254;12.988;2023-07-16T13:12:24;12.90;;;2.80;;
5823;SDS011;2938;52.254;12.988;2023-07-16T13:14:49;5.70;;;2.30;;
5823;SDS011;2938;52.254;12.988;2023-07-16T13:17:15;6.13;;;2.35;;
5823;SDS011;2938;52.254;12.988;2023-07-16T13:19:42;8.27;;;2.08;;
5823;SDS011;2938;52.254;12.988;2023-07-16T13:22:08;3.00;;;1.92;;
5823;SDS011;2938;52.254;12.988;2023-07-16T13:24:36;5.38;;;2.67;;
5823;SDS011;2938;52.254;12.988;2023-07-16T13:27:02;3.67;;;2.08;;
5823;SDS011;2938;52.254;12.988;2023-07-16T13:29:27;6.35;;;2.45;;
5823;SDS011;2938;52.254;12.988;2023-07-16T13:31:56;3.92;;;1.58;;
5823;SDS011;2938;52.254;12.988;2023-07-16T13:34:21;6.88;;;2.78;;
5823;SDS011;2938;52.254;12.988;2023-07-16T13:36:53;7.10;;;2.15;;
5823;SDS011;2938;52.254;12.988;2023-07-16T13:39:27;6.07;;;2.20;;
5823;SDS011;2938;52.254;12.988;2023-07-16T13:41:55;8.35;;;1.90;;
5823;SDS011;2938;52.254;12.988;2023-07-16T13:45:05;4.95;;;2.30;;
5823;SDS011;2938;52.254;12.988;2023-07-16T13:47:34;3.92;;;2.13;;
5823;SDS011;2938;52.254;12.988;2023-07-16T13:50:09;2.95;;;1.70;;
5823;SDS011;2938;52.254;12.988;2023-07-16T13:52:51;7.00;;;1.90;;
5823;SDS011;2938;52.254;12.988;2023-07-16T13:57:46;4.10;;;2.25;;
5823;SDS011;2938;52.254;12.988;2023-07-16T14:00:20;9.23;;;2.78;;
5823;SDS011;2938;52.254;12.988;2023-07-16T14:02:52;3.58;;;2.20;;
5823;SDS011;2938;52.254;12.988;2023-07-16T14:05:19;2.65;;;1.73;;
5823;SDS011;2938;52.254;12.988;2023-07-16T14:15:35;5.88;;;2.67;;
5823;SDS011;2938;52.254;12.988;2023-07-16T14:18:40;5.93;;;2.13;;
5823;SDS011;2938;52.254;12.988;2023-07-16T14:21:11;3.63;;;1.70;;
5823;SDS011;2938;52.254;12.988;2023-07-16T14:23:45;2.05;;;1.80;;
5823;SDS011;2938;52.254;12.988;2023-07-16T14:26:46;3.72;;;2.15;;
5823;SDS011;2938;52.254;12.988;2023-07-16T14:29:25;3.45;;;2.10;;
5823;SDS011;2938;52.254;12.988;2023-07-16T14:32:04;5.50;;;2.17;;
5823;SDS011;2938;52.254;12.988;2023-07-16T14:34:32;4.00;;;2.25;;
5823;SDS011;2938;52.254;12.988;2023-07-16T14:37:03;6.47;;;2.33;;
5823;SDS011;2938;52.254;12.988;2023-07-16T14:39:32;5.03;;;2.05;;
5823;SDS011;2938;52.254;12.988;2023-07-16T14:41:57;4.07;;;2.00;;
5823;SDS011;2938;52.254;12.988;2023-07-16T14:44:46;12.45;;;2.13;;
5823;SDS011;2938;52.254;12.988;2023-07-16T14:47:12;4.93;;;2.25;;
5823;SDS011;2938;52.254;12.988;2023-07-16T14:49:37;5.68;;;2.35;;
5823;SDS011;2938;52.254;12.988;2023-07-16T14:52:06;3.83;;;2.08;;
5823;SDS011;2938;52.254;12.988;2023-07-16T14:54:37;5.95;;;2.35;;
5823;SDS011;2938;52.254;12.988;2023-07-16T14:57:02;4.07;;;2.22;;
5823;SDS011;2938;52.254;12.988;2023-07-16T14:59:30;11.70;;;2.42;;
5823;SDS011;2938;52.254;12.988;2023-07-16T15:01:56;2.95;;;2.33;;
5823;SDS011;2938;52.254;12.988;2023-07-16T15:04:21;8.05;;;3.13;;
5823;SDS011;2938;52.254;12.988;2023-07-16T15:06:47;7.95;;;2.78;;
5823;SDS011;2938;52.254;12.988;2023-07-16T15:09:14;9.43;;;2.90;;
5823;SDS011;2938;52.254;12.988;2023-07-16T15:11:42;8.48;;;2.28;;
5823;SDS011;2938;52.254;12.988;2023-07-16T15:14:19;5.25;;;2.22;;
5823;SDS011;2938;52.254;12.988;2023-07-16T15:16:50;3.30;;;1.85;;
5823;SDS011;2938;52.254;12.988;2023-07-16T15:19:16;17.08;;;2.65;;
5823;SDS011;2938;52.254;12.988;2023-07-16T15:24:32;8.88;;;2.65;;
5823;SDS011;2938;52.254;12.988;2023-07-16T15:26:57;5.28;;;2.42;;
5823;SDS011;2938;52.254;12.988;2023-07-16T15:29:25;5.80;;;2.97;;
5823;SDS011;2938;52.254;12.988;2023-07-16T15:32:02;5.22;;;2.25;;
5823;SDS011;2938;52.254;12.988;2023-07-16T15:34:30;4.38;;;2.58;;
5823;SDS011;2938;52.254;12.988;2023-07-16T15:36:58;5.75;;;2.03;;
5823;SDS011;2938;52.254;12.988;2023-07-16T15:39:26;3.88;;;2.75;;
5823;SDS011;2938;52.254;12.988;2023-07-16T15:41:54;3.63;;;1.90;;
5823;SDS011;2938;52.254;12.988;2023-07-16T15:44:19;10.70;;;2.78;;
5823;SDS011;2938;52.254;12.988;2023-07-16T15:46:48;4.47;;;2.03;;
5823;SDS011;2938;52.254;12.988;2023-07-16T15:49:25;5.28;;;2.13;;
5823;SDS011;2938;52.254;12.988;2023-07-16T15:51:51;6.07;;;2.35;;
5823;SDS011;2938;52.254;12.988;2023-07-16T15:54:22;6.43;;;2.50;;
5823;SDS011;2938;52.254;12.988;2023-07-16T15:56:47;4.07;;;2.88;;
5823;SDS011;2938;52.254;12.988;2023-07-16T15:59:44;15.30;;;2.97;;
5823;SDS011;2938;52.254;12.988;2023-07-16T16:02:20;8.07;;;2.45;;
5823;SDS011;2938;52.254;12.988;2023-07-16T16:04:49;6.63;;;2.90;;
5823;SDS011;2938;52.254;12.988;2023-07-16T16:07:42;6.28;;;2.85;;
5823;SDS011;2938;52.254;12.988;2023-07-16T16:10:27;5.60;;;2.58;;
5823;SDS011;2938;52.254;12.988;2023-07-16T16:15:54;5.07;;;2.45;;
5823;SDS011;2938;52.254;12.988;2023-07-16T16:18:31;3.40;;;2.58;;
5823;SDS011;2938;52.254;12.988;2023-07-16T16:24:39;9.98;;;2.92;;